Time;durP1;ratioP1;P1;durP2;ratioP2;P2;SDS_P1;SDS_P2;PMS_P1;PMS_P2;Temp;Humidity;BMP_temperature;BMP_pressure;BME280_temperature;BME280_humidity;BME280_pressure;Samples;Min_cycle;Max_cycle;Signal;HPM_P1;HPM_P2
2023/08/31 00:00:44;;;;;;;7.20;3.72;;;15.70;99.90;;;;;;2585935;54;21002;31
2023/08/31 00:03:16;;;;;;;3.90;2.55;;;15.70;99.90;;;;;;2586094;54;20792;31
2023/08/31 00:05:51;;;;;;;5.40;3.60;;;15.70;99.90;;;;;;2604532;46;20053;31
2023/08/31 00:08:24;;;;;;;5.40;3.90;;;15.70;99.90;;;;;;2604421;46;20242;31
2023/08/31 00:11:00;;;;;;;5.30;3.25;;;15.70;99.90;;;;;;2585849;54;20050;31
2023/08/31 00:13:34;;;;;;;5.03;3.20;;;15.70;99.90;;;;;;2585964;54;20886;31
2023/08/31 00:16:09;;;;;;;9.40;3.60;;;15.70;99.90;;;;;;2604485;46;20969;31
2023/08/31 00:18:42;;;;;;;3.90;2.90;;;15.70;99.90;;;;;;2586000;54;20999;31
2023/08/31 00:21:15;;;;;;;5.20;2.85;;;15.60;99.90;;;;;;2586140;54;20063;31
2023/08/31 00:23:47;;;;;;;7.43;4.07;;;15.60;99.90;;;;;;2585947;54;20850;31
2023/08/31 00:26:19;;;;;;;4.32;2.28;;;15.60;99.90;;;;;;2604759;46;20969;31
2023/08/31 00:28:58;;;;;;;7.70;3.70;;;15.70;99.90;;;;;;2604139;46;20109;31
2023/08/31 00:31:32;;;;;;;7.40;3.83;;;15.70;99.90;;;;;;2604282;46;20052;31
2023/08/31 00:34:06;;;;;;;5.75;2.50;;;15.60;99.90;;;;;;2585965;54;20961;31
2023/08/31 00:36:39;;;;;;;5.70;3.00;;;15.70;99.90;;;;;;2585877;54;20988;31
2023/08/31 00:39:13;;;;;;;7.20;3.33;;;15.60;99.90;;;;;;2585826;54;20037;31
2023/08/31 00:41:47;;;;;;;8.15;4.15;;;15.60;99.90;;;;;;2585934;54;19993;31
2023/08/31 00:44:22;;;;;;;4.90;2.50;;;15.60;99.90;;;;;;2586217;54;20026;31
2023/08/31 00:46:56;;;;;;;6.13;3.20;;;15.70;99.90;;;;;;2604429;46;20030;31
2023/08/31 00:49:31;;;;;;;5.80;3.90;;;15.60;99.90;;;;;;2585836;54;20884;31
2023/08/31 00:52:04;;;;;;;9.10;3.80;;;15.60;99.90;;;;;;2604445;46;19934;31
2023/08/31 00:54:36;;;;;;;6.70;3.30;;;15.60;99.90;;;;;;2585817;54;20120;31
2023/08/31 00:57:08;;;;;;;7.88;3.67;;;15.50;99.90;;;;;;2585828;54;20062;31
2023/08/31 00:59:45;;;;;;;6.40;3.60;;;15.50;99.90;;;;;;2585902;54;20027;31
2023/08/31 01:02:21;;;;;;;5.72;3.47;;;15.50;99.90;;;;;;2585936;54;20786;31
2023/08/31 01:05:01;;;;;;;6.27;3.67;;;15.40;99.90;;;;;;2585795;54;20042;31
2023/08/31 01:07:52;;;;;;;7.40;3.50;;;15.40;99.90;;;;;;2585913;54;20084;31
2023/08/31 01:10:28;;;;;;;3.70;2.45;;;15.40;99.90;;;;;;2585789;54;20992;31
2023/08/31 01:13:03;;;;;;;7.75;3.15;;;15.40;99.90;;;;;;2605038;46;20999;31
2023/08/31 01:15:38;;;;;;;7.43;3.53;;;15.40;99.90;;;;;;2586542;54;20091;31
2023/08/31 01:18:13;;;;;;;3.85;2.00;;;15.30;99.90;;;;;;2605205;46;20031;31
2023/08/31 01:20:51;;;;;;;8.60;2.72;;;15.30;99.90;;;;;;2586863;54;20026;31
2023/08/31 01:23:23;;;;;;;5.05;2.80;;;15.20;99.90;;;;;;2605119;46;20147;31
2023/08/31 01:25:58;;;;;;;5.90;2.92;;;15.20;99.90;;;;;;2586514;54;20790;31
2023/08/31 01:28:31;;;;;;;6.00;3.40;;;15.10;99.90;;;;;;2586691;54;20852;31
2023/08/31 01:31:07;;;;;;;12.63;3.67;;;15.10;99.90;;;;;;2586447;54;20969;31
2023/08/31 01:37:08;;;;;;;5.80;2.60;;;15.00;99.90;;;;;;2586514;54;20982;31
2023/08/31 01:39:43;;;;;;;6.47;3.07;;;14.90;99.90;;;;;;2586607;54;20762;31
2023/08/31 01:42:20;;;;;;;3.35;2.10;;;14.90;99.90;;;;;;2586563;54;20038;31
2023/08/31 01:44:51;;;;;;;7.63;2.97;;;14.90;99.90;;;;;;2586484;54;20735;31
2023/08/31 01:47:26;;;;;;;6.73;3.27;;;14.90;99.90;;;;;;2586466;54;20797;31
2023/08/31 01:50:00;;;;;;;3.70;2.10;;;14.90;99.90;;;;;;2586417;54;20027;31
2023/08/31 01:52:33;;;;;;;6.55;2.78;;;14.90;99.90;;;;;;2604981;46;20234;31
2023/08/31 01:55:08;;;;;;;4.85;2.83;;;14.90;99.90;;;;;;2586323;54;20034;31
2023/08/31 01:57:42;;;;;;;3.33;2.22;;;14.90;99.90;;;;;;2586464;54;20945;31
2023/08/31 02:00:23;;;;;;;6.45;3.30;;;14.90;99.90;;;;;;2604578;46;20049;31
2023/08/31 02:02:55;;;;;;;4.15;2.25;;;15.00;99.90;;;;;;2586586;54;21019;31
2023/08/31 02:05:28;;;;;;;6.80;3.13;;;15.00;99.90;;;;;;2586610;54;20034;31
2023/08/31 02:08:00;;;;;;;3.17;1.92;;;15.00;99.90;;;;;;2586471;54;21002;31
2023/08/31 02:10:34;;;;;;;4.03;2.67;;;15.00;99.90;;;;;;2586543;54;20022;31
2023/08/31 02:13:11;;;;;;;4.10;2.65;;;14.90;99.90;;;;;;2586222;54;20030;31
2023/08/31 02:15:43;;;;;;;4.83;2.50;;;15.00;99.90;;;;;;2586367;54;20042;31
2023/08/31 02:18:16;;;;;;;6.40;4.85;;;15.00;99.90;;;;;;2586161;54;20685;31
2023/08/31 02:20:49;;;;;;;4.32;3.13;;;14.90;99.90;;;;;;2586251;54;20045;31
2023/08/31 02:23:22;;;;;;;3.10;1.80;;;14.90;99.90;;;;;;2604768;46;20022;31
2023/08/31 02:25:54;;;;;;;3.85;2.40;;;14.90;99.90;;;;;;2586455;54;20775;31
2023/08/31 02:28:29;;;;;;;4.90;2.75;;;14.90;99.90;;;;;;2586604;54;20843;31
2023/08/31 02:31:01;;;;;;;6.07;3.33;;;14.90;99.90;;;;;;2586493;54;20738;31
2023/08/31 02:33:37;;;;;;;5.43;3.05;;;14.90;99.90;;;;;;2586357;54;20943;31
2023/08/31 02:36:09;;;;;;;3.40;2.40;;;14.80;99.90;;;;;;2586438;54;20749;31
2023/08/31 02:38:42;;;;;;;5.88;2.92;;;14.80;99.90;;;;;;2586552;54;20037;31
2023/08/31 02:41:14;;;;;;;5.80;3.20;;;14.80;99.90;;;;;;2604685;46;20031;31
2023/08/31 02:43:49;;;;;;;5.32;3.10;;;14.80;99.90;;;;;;2586416;54;20942;31
2023/08/31 02:46:21;;;;;;;6.20;3.13;;;14.70;99.90;;;;;;2586482;54;20858;31
2023/08/31 02:48:53;;;;;;;3.67;2.63;;;14.70;99.90;;;;;;2586279;54;20038;31
2023/08/31 02:51:25;;;;;;;6.60;2.63;;;14.70;99.90;;;;;;2586203;54;20057;31
2023/08/31 02:53:57;;;;;;;4.87;3.00;;;14.60;99.90;;;;;;2586231;54;20027;31
2023/08/31 02:56:30;;;;;;;5.25;3.55;;;14.60;99.90;;;;;;2586235;54;20026;31
2023/08/31 02:59:05;;;;;;;5.80;2.77;;;14.60;99.90;;;;;;2604778;46;20064;31
2023/08/31 03:01:40;;;;;;;6.65;2.55;;;14.60;99.90;;;;;;2586273;54;20113;31
2023/08/31 03:04:12;;;;;;;5.25;2.92;;;14.60;99.90;;;;;;2586195;54;20763;31
2023/08/31 03:06:45;;;;;;;7.00;3.33;;;14.50;99.90;;;;;;2586198;54;20034;31
2023/08/31 03:09:17;;;;;;;4.82;2.80;;;14.50;99.90;;;;;;2604789;46;20093;31
2023/08/31 03:11:50;;;;;;;7.00;2.92;;;14.50;99.90;;;;;;2604717;46;20031;31
2023/08/31 03:14:27;;;;;;;5.57;3.72;;;14.40;99.90;;;;;;2586316;54;20753;31
2023/08/31 03:17:01;;;;;;;5.38;2.75;;;14.40;99.90;;;;;;2586425;54;20026;31
2023/08/31 03:19:34;;;;;;;6.38;2.67;;;14.40;99.90;;;;;;2604559;46;19941;31
2023/08/31 03:22:08;;;;;;;5.13;3.15;;;14.40;99.90;;;;;;2586146;54;20030;31
2023/08/31 03:24:42;;;;;;;6.20;2.90;;;14.40;99.90;;;;;;2586025;54;20667;31
2023/08/31 03:27:15;;;;;;;7.55;3.20;;;14.30;99.90;;;;;;2604704;46;21088;31
2023/08/31 03:29:52;;;;;;;5.07;3.20;;;14.30;99.90;;;;;;2585851;54;20038;31
2023/08/31 03:32:23;;;;;;;5.28;3.17;;;14.30;99.90;;;;;;2586108;54;20107;31
2023/08/31 03:34:55;;;;;;;6.18;3.35;;;14.30;99.90;;;;;;2586083;54;20030;31
2023/08/31 03:37:27;;;;;;;7.00;3.40;;;14.30;99.90;;;;;;2604800;46;20031;31
2023/08/31 03:40:04;;;;;;;5.00;2.95;;;14.30;99.90;;;;;;2586100;54;20978;31
2023/08/31 03:42:36;;;;;;;;;;;14.30;99.90;;;;;;2690814;39;20386;31
2023/08/31 03:45:13;;;;;;;4.20;2.70;;;14.30;99.90;;;;;;2586389;54;19957;31
2023/08/31 03:47:45;;;;;;;;;;;14.30;99.90;;;;;;2586317;54;20845;31
2023/08/31 03:50:18;;;;;;;6.47;3.33;;;14.20;99.90;;;;;;2604563;46;20017;31
2023/08/31 03:52:53;;;;;;;5.38;3.85;;;14.20;99.90;;;;;;2586175;54;20865;31
2023/08/31 03:55:25;;;;;;;5.28;3.50;;;14.20;99.90;;;;;;2586055;54;20030;31
2023/08/31 03:57:58;;;;;;;5.85;3.70;;;14.20;99.90;;;;;;2586197;54;20941;31
2023/08/31 04:00:32;;;;;;;3.75;2.45;;;14.20;99.90;;;;;;2586009;54;20892;31
2023/08/31 04:03:04;;;;;;;7.28;3.20;;;14.10;99.90;;;;;;2586064;54;20954;31
2023/08/31 04:05:37;;;;;;;5.30;3.17;;;14.10;99.90;;;;;;2586046;54;20027;31
2023/08/31 04:08:09;;;;;;;8.57;3.30;;;14.10;99.90;;;;;;2586153;54;20026;31
2023/08/31 04:10:41;;;;;;;5.35;3.03;;;14.10;99.90;;;;;;2586236;54;20756;31
2023/08/31 04:13:13;;;;;;;5.30;2.75;;;14.10;99.90;;;;;;2586129;54;20027;31
2023/08/31 04:15:48;;;;;;;5.65;3.50;;;14.10;99.90;;;;;;2586080;54;21036;31
2023/08/31 04:18:22;;;;;;;7.07;3.70;;;14.10;99.90;;;;;;2586059;54;20749;31
2023/08/31 04:20:55;;;;;;;5.97;3.57;;;14.10;99.90;;;;;;2586076;54;20031;31
2023/08/31 04:23:26;;;;;;;3.87;2.17;;;14.10;99.90;;;;;;2585912;54;20850;31
2023/08/31 04:25:59;;;;;;;8.20;3.60;;;14.10;99.90;;;;;;2586097;54;21130;31
2023/08/31 04:28:33;;;;;;;10.07;3.27;;;14.10;99.90;;;;;;2598551;46;20054;31
2023/08/31 04:31:10;;;;;;;7.57;4.03;;;14.10;99.90;;;;;;2585834;54;20984;31
2023/08/31 04:33:42;;;;;;;6.93;4.10;;;14.10;99.90;;;;;;2585895;54;20934;31
2023/08/31 04:36:14;;;;;;;7.13;3.92;;;14.20;99.90;;;;;;2585808;54;21066;31
2023/08/31 04:38:46;;;;;;;7.85;3.00;;;14.20;99.90;;;;;;2586216;54;19941;31
2023/08/31 04:41:18;;;;;;;5.90;3.90;;;14.20;99.90;;;;;;2585872;54;20866;31
2023/08/31 04:43:50;;;;;;;6.60;3.45;;;14.20;99.90;;;;;;2586050;54;21221;31
2023/08/31 04:46:26;;;;;;;4.30;2.70;;;14.20;99.90;;;;;;2603903;46;20022;31
2023/08/31 04:48:58;;;;;;;15.73;3.53;;;14.20;99.90;;;;;;2585742;54;20878;31
2023/08/31 04:51:32;;;;;;;4.00;3.05;;;14.30;99.90;;;;;;2585754;54;20031;31
2023/08/31 04:54:04;;;;;;;5.60;3.20;;;14.30;99.90;;;;;;2604636;46;21022;31
2023/08/31 04:56:37;;;;;;;5.75;3.45;;;14.30;99.90;;;;;;2586079;54;20753;31
2023/08/31 04:59:11;;;;;;;7.80;4.20;;;14.40;99.90;;;;;;2585948;54;20120;31
2023/08/31 05:01:48;;;;;;;5.80;3.60;;;14.40;99.90;;;;;;2585850;54;20863;31
2023/08/31 05:04:20;;;;;;;8.15;3.25;;;14.40;99.90;;;;;;2586036;54;21206;31
2023/08/31 05:06:54;;;;;;;8.05;3.50;;;14.50;99.90;;;;;;2604146;47;20034;31
2023/08/31 05:09:32;;;;;;;5.57;3.55;;;14.50;99.90;;;;;;2585985;54;20022;31
2023/08/31 05:12:03;;;;;;;5.55;3.35;;;14.50;99.90;;;;;;2585737;54;20040;31
2023/08/31 05:14:37;;;;;;;5.57;3.55;;;14.60;99.90;;;;;;2585739;54;20869;31
2023/08/31 05:17:11;;;;;;;8.98;3.47;;;14.70;99.90;;;;;;2604386;47;19934;31
2023/08/31 05:19:45;;;;;;;7.65;3.90;;;14.70;99.90;;;;;;2585727;54;20038;31
2023/08/31 05:22:17;;;;;;;6.43;3.38;;;14.80;99.90;;;;;;2585646;54;20038;31
2023/08/31 05:24:52;;;;;;;7.22;4.22;;;14.80;99.90;;;;;;2585676;54;20781;31
2023/08/31 05:27:25;;;;;;;6.55;3.38;;;14.90;99.90;;;;;;2603853;47;21013;31
2023/08/31 05:29:57;;;;;;;9.05;3.70;;;15.00;99.90;;;;;;2604424;47;20038;31
2023/08/31 05:32:34;;;;;;;5.82;3.47;;;15.10;99.90;;;;;;2585578;54;20054;31
2023/08/31 05:35:07;;;;;;;8.23;3.90;;;15.10;99.90;;;;;;2604528;47;20027;31
2023/08/31 05:37:41;;;;;;;8.70;4.00;;;15.20;99.90;;;;;;2585511;54;20893;31
2023/08/31 05:40:14;;;;;;;4.70;3.60;;;15.30;99.90;;;;;;2585677;54;20101;31
2023/08/31 05:42:46;;;;;;;8.33;4.50;;;15.40;99.90;;;;;;2585513;54;20039;31
2023/08/31 05:45:19;;;;;;;6.67;4.33;;;15.50;99.90;;;;;;2585770;54;20294;31
2023/08/31 05:47:54;;;;;;;5.97;3.90;;;15.50;99.90;;;;;;2585555;54;21099;31
2023/08/31 05:50:28;;;;;;;4.68;3.85;;;15.60;99.90;;;;;;2585526;54;20133;31
2023/08/31 05:53:00;;;;;;;7.60;4.20;;;15.70;99.90;;;;;;2585498;54;20030;31
2023/08/31 05:55:32;;;;;;;5.68;3.70;;;15.70;99.90;;;;;;2585598;54;20884;31
2023/08/31 05:58:07;;;;;;;6.78;4.45;;;15.80;99.90;;;;;;2604335;47;20960;31
2023/08/31 06:00:39;;;;;;;8.38;4.50;;;15.90;99.90;;;;;;2604990;46;20769;31
2023/08/31 06:03:14;;;;;;;8.85;4.70;;;15.90;99.90;;;;;;2604903;46;20871;31
2023/08/31 06:05:46;;;;;;;5.70;4.10;;;16.00;99.90;;;;;;2586297;54;20806;31
2023/08/31 06:08:19;;;;;;;8.60;4.90;;;16.00;99.90;;;;;;2586613;54;20033;31
2023/08/31 06:10:53;;;;;;;7.65;4.88;;;16.00;99.90;;;;;;2604330;46;20073;31
2023/08/31 06:13:27;;;;;;;5.60;3.95;;;16.00;99.90;;;;;;2586714;54;20991;31
2023/08/31 06:16:00;;;;;;;10.70;8.00;;;16.10;99.90;;;;;;2586215;54;20067;31
2023/08/31 06:18:35;;;;;;;12.43;8.70;;;16.20;99.90;;;;;;2586305;54;20888;31
2023/08/31 06:21:06;;;;;;;14.23;10.13;;;16.30;99.90;;;;;;2585995;54;20235;31
2023/08/31 06:23:39;;;;;;;14.85;9.25;;;16.40;99.90;;;;;;2586102;54;20865;31
2023/08/31 06:26:12;;;;;;;8.85;5.63;;;16.60;99.90;;;;;;2586390;54;20061;31
2023/08/31 06:28:45;;;;;;;9.48;5.38;;;16.70;99.90;;;;;;2586578;54;20030;31
2023/08/31 06:31:19;;;;;;;9.45;5.43;;;17.00;99.90;;;;;;2604595;46;20033;31
2023/08/31 06:33:56;;;;;;;5.88;4.70;;;17.30;99.90;;;;;;2586254;54;20037;31
2023/08/31 06:36:27;;;;;;;7.00;4.22;;;17.70;99.90;;;;;;2586255;54;20837;31
2023/08/31 06:39:00;;;;;;;5.00;3.80;;;18.00;99.90;;;;;;2586306;54;20027;31
2023/08/31 06:41:32;;;;;;;6.15;4.30;;;18.30;99.90;;;;;;2605074;46;20824;31
2023/08/31 06:44:05;;;;;;;4.47;3.63;;;18.60;99.90;;;;;;2586341;54;20900;31
2023/08/31 06:46:38;;;;;;;5.90;4.20;;;19.00;99.90;;;;;;2604698;46;20261;31
2023/08/31 06:49:14;;;;;;;5.35;4.05;;;19.30;99.90;;;;;;2604587;46;20057;31
2023/08/31 06:51:45;;;;;;;;;;;19.50;99.90;;;;;;2586739;54;20757;31
2023/08/31 06:54:17;;;;;;;7.88;3.92;;;19.70;99.90;;;;;;2586156;54;19935;31
2023/08/31 06:56:49;;;;;;;6.23;3.80;;;20.00;99.90;;;;;;2586351;54;20030;31
2023/08/31 06:59:22;;;;;;;7.55;3.40;;;20.10;99.90;;;;;;2586116;54;20001;31
2023/08/31 07:01:55;;;;;;;4.90;4.05;;;20.40;99.90;;;;;;2604506;46;20027;31
2023/08/31 07:04:32;;;;;;;4.68;3.20;;;20.60;99.90;;;;;;2604868;46;20026;31
2023/08/31 07:07:05;;;;;;;6.50;3.28;;;20.90;99.90;;;;;;2586451;54;20911;31
2023/08/31 07:09:36;;;;;;;7.47;3.57;;;21.10;99.90;;;;;;2586166;54;20756;31
2023/08/31 07:12:09;;;;;;;6.00;3.70;;;21.30;99.90;;;;;;2586108;54;20112;31
2023/08/31 07:14:41;;;;;;;4.32;3.08;;;21.50;99.90;;;;;;2586490;54;20866;31
2023/08/31 07:17:16;;;;;;;5.90;3.63;;;21.80;99.90;;;;;;2586438;54;20926;31
2023/08/31 07:19:52;;;;;;;4.60;3.43;;;21.90;99.90;;;;;;2586331;54;20053;31
2023/08/31 07:22:26;;;;;;;4.53;3.40;;;22.10;99.90;;;;;;2604968;46;20029;31
2023/08/31 07:25:00;;;;;;;5.28;3.15;;;22.10;99.90;;;;;;2585908;54;21387;31
2023/08/31 07:27:34;;;;;;;4.90;3.30;;;22.00;99.90;;;;;;2586170;54;20863;31
2023/08/31 07:30:07;;;;;;;5.70;3.60;;;22.20;99.90;;;;;;2586109;54;20096;31
2023/08/31 07:32:40;;;;;;;5.35;3.60;;;22.40;99.90;;;;;;2600819;46;20571;31
2023/08/31 07:35:16;;;;;;;5.25;4.05;;;22.20;99.90;;;;;;2604354;46;20938;31
2023/08/31 07:37:46;;;;;;;;;;;22.30;99.90;;;;;;2586517;54;20076;31
2023/08/31 07:40:17;;;;;;;5.50;3.85;;;22.30;99.90;;;;;;2603940;46;19941;31
2023/08/31 07:42:51;;;;;;;7.57;4.18;;;22.20;99.90;;;;;;2586278;54;20034;31
2023/08/31 07:45:25;;;;;;;5.43;3.45;;;22.20;99.90;;;;;;2586120;54;20854;31
2023/08/31 07:47:58;;;;;;;5.20;3.80;;;22.10;99.90;;;;;;2586138;54;20090;31
2023/08/31 07:50:34;;;;;;;3.83;3.15;;;21.90;99.90;;;;;;2604366;46;20535;31
2023/08/31 07:53:08;;;;;;;6.72;4.25;;;21.70;99.90;;;;;;2586271;54;20105;31
2023/08/31 07:55:40;;;;;;;5.03;3.57;;;21.70;99.90;;;;;;2604678;46;20925;31
2023/08/31 07:58:13;;;;;;;5.65;3.55;;;21.70;99.90;;;;;;2586299;54;20093;31
2023/08/31 08:00:45;;;;;;;4.60;3.45;;;21.80;99.90;;;;;;2604881;46;20898;31
2023/08/31 08:03:17;;;;;;;4.32;3.38;;;21.90;99.90;;;;;;2586053;54;20736;31
2023/08/31 08:05:53;;;;;;;5.32;3.58;;;21.80;99.90;;;;;;2586506;54;20744;31
2023/08/31 08:08:24;;;;;;;5.57;3.67;;;21.70;99.90;;;;;;2586297;54;20774;31
2023/08/31 08:10:56;;;;;;;4.75;3.65;;;21.50;99.90;;;;;;2586052;54;20852;31
2023/08/31 08:13:29;;;;;;;4.10;2.95;;;21.20;99.90;;;;;;2586099;54;20877;31
2023/08/31 08:16:05;;;;;;;5.18;3.17;;;21.00;99.90;;;;;;2586202;54;20031;31
2023/08/31 08:18:38;;;;;;;4.90;3.40;;;20.80;99.90;;;;;;2604451;46;20884;31
2023/08/31 08:21:13;;;;;;;5.15;3.40;;;20.60;99.90;;;;;;2585995;54;20048;31
2023/08/31 08:23:50;;;;;;;3.90;3.00;;;20.40;99.90;;;;;;2604328;46;20036;31
2023/08/31 08:26:23;;;;;;;4.30;2.90;;;20.30;99.90;;;;;;2586153;54;20032;31
2023/08/31 08:28:56;;;;;;;3.05;2.60;;;20.10;99.90;;;;;;2604578;46;20036;31
2023/08/31 08:31:29;;;;;;;2.83;2.42;;;19.90;99.90;;;;;;2604727;46;20056;31
2023/08/31 08:34:01;;;;;;;2.65;2.33;;;19.60;99.90;;;;;;2585890;54;20771;31
2023/08/31 08:36:37;;;;;;;3.30;2.80;;;19.40;99.90;;;;;;2585996;54;20033;31
2023/08/31 08:39:11;;;;;;;4.30;2.63;;;19.30;99.90;;;;;;2585882;54;20047;31
2023/08/31 08:41:44;;;;;;;2.58;2.22;;;19.30;99.90;;;;;;2585914;54;20258;31
2023/08/31 08:44:16;;;;;;;7.00;2.70;;;19.30;99.90;;;;;;2585861;54;20882;31
2023/08/31 08:46:48;;;;;;;2.77;2.37;;;19.20;99.90;;;;;;2585878;54;20766;31
2023/08/31 08:49:21;;;;;;;2.83;2.53;;;19.10;99.90;;;;;;2586130;54;20023;31
2023/08/31 08:51:57;;;;;;;3.55;2.80;;;19.00;99.90;;;;;;2585764;54;20027;31
2023/08/31 08:54:29;;;;;;;3.60;2.70;;;18.90;99.90;;;;;;2585880;54;20782;31
2023/08/31 08:57:03;;;;;;;3.10;2.30;;;18.80;99.90;;;;;;2585732;54;20026;31
2023/08/31 08:59:35;;;;;;;3.70;3.20;;;18.50;99.90;;;;;;2585791;54;20806;31
2023/08/31 09:02:09;;;;;;;3.20;2.65;;;18.40;99.90;;;;;;2585870;54;20034;31
2023/08/31 09:04:43;;;;;;;4.45;2.55;;;18.30;99.90;;;;;;2585540;54;20027;31
2023/08/31 09:07:19;;;;;;;2.85;1.90;;;18.20;99.90;;;;;;2585898;54;20034;31
2023/08/31 09:09:53;;;;;;;4.15;2.10;;;18.20;99.90;;;;;;2585736;54;20811;31
2023/08/31 09:12:26;;;;;;;2.07;1.87;;;18.10;99.90;;;;;;2585829;54;20030;31
2023/08/31 09:15:02;;;;;;;2.05;1.70;;;18.10;99.90;;;;;;2604644;47;20898;31
2023/08/31 09:17:42;;;;;;;2.25;1.50;;;18.10;99.90;;;;;;2585894;54;20903;31
2023/08/31 09:20:16;;;;;;;4.37;1.53;;;18.00;99.90;;;;;;2585906;54;20037;31
2023/08/31 09:22:52;;;;;;;2.70;1.70;;;18.00;99.90;;;;;;2585519;54;20242;31
2023/08/31 09:25:25;;;;;;;2.95;1.50;;;17.90;99.90;;;;;;2585652;54;20038;31
2023/08/31 09:27:57;;;;;;;2.08;1.20;;;17.80;99.90;;;;;;2585671;54;20089;31
2023/08/31 09:30:29;;;;;;;1.65;1.20;;;17.70;99.90;;;;;;2585649;54;20053;31
2023/08/31 09:33:01;;;;;;;3.40;1.48;;;17.60;99.90;;;;;;2586344;54;20034;31
2023/08/31 09:35:33;;;;;;;1.60;1.00;;;17.50;99.90;;;;;;2586525;54;20966;31
2023/08/31 09:38:10;;;;;;;2.30;1.40;;;17.40;99.90;;;;;;2605130;46;20057;31
2023/08/31 09:40:42;;;;;;;1.90;1.40;;;17.20;99.90;;;;;;2586367;54;20030;31
2023/08/31 09:43:22;;;;;;;3.20;1.15;;;17.10;99.90;;;;;;2586411;54;20117;31
2023/08/31 09:45:54;;;;;;;2.03;0.90;;;17.00;99.90;;;;;;2586452;54;20035;31
2023/08/31 09:48:27;;;;;;;1.50;1.10;;;16.90;99.90;;;;;;2586631;54;20030;31
2023/08/31 09:50:59;;;;;;;3.65;1.10;;;16.80;99.90;;;;;;2586369;54;20056;31
2023/08/31 09:53:34;;;;;;;6.70;1.30;;;16.60;99.90;;;;;;2586542;54;20105;31
2023/08/31 09:56:07;;;;;;;2.50;1.60;;;16.50;99.90;;;;;;2586564;54;20922;31
2023/08/31 09:58:39;;;;;;;3.50;1.50;;;16.50;99.90;;;;;;2586744;54;20886;31
2023/08/31 10:01:11;;;;;;;2.72;1.48;;;16.40;99.90;;;;;;2586589;54;21240;31
2023/08/31 10:04:00;;;;;;;2.65;1.50;;;16.40;99.90;;;;;;2586407;54;20093;31
2023/08/31 10:06:33;;;;;;;2.17;1.40;;;16.40;99.90;;;;;;2604684;46;20991;31
2023/08/31 10:09:09;;;;;;;1.83;1.10;;;16.40;99.90;;;;;;2586320;54;20747;31
2023/08/31 10:11:42;;;;;;;1.80;1.05;;;16.40;99.90;;;;;;2604834;46;19981;31
2023/08/31 10:14:14;;;;;;;1.80;1.50;;;16.50;99.90;;;;;;2586479;54;20039;31
2023/08/31 10:16:47;;;;;;;1.50;1.23;;;16.50;99.90;;;;;;2586502;54;20097;31
2023/08/31 10:19:21;;;;;;;2.33;1.35;;;16.60;99.90;;;;;;2586269;54;20834;31
2023/08/31 10:21:53;;;;;;;2.53;1.23;;;16.60;99.90;;;;;;2586632;54;20877;31
2023/08/31 10:24:56;;;;;;;3.65;1.40;;;16.60;99.90;;;;;;2586394;54;20882;31
2023/08/31 10:27:38;;;;;;;4.00;1.25;;;16.60;99.90;;;;;;2585977;54;20939;31
2023/08/31 10:32:41;;;;;;;2.30;1.50;;;16.60;99.90;;;;;;2586361;54;20867;31
2023/08/31 10:35:14;;;;;;;1.98;1.10;;;16.70;99.90;;;;;;2586363;54;20050;31
2023/08/31 10:37:49;;;;;;;2.03;1.30;;;16.70;99.90;;;;;;2586348;54;20026;31
2023/08/31 10:40:21;;;;;;;1.83;1.33;;;16.80;99.90;;;;;;2586359;54;20762;31
2023/08/31 10:43:19;;;;;;;1.85;1.35;;;16.80;99.90;;;;;;2586292;54;20880;31
2023/08/31 10:45:55;;;;;;;2.33;1.60;;;17.00;99.90;;;;;;2604438;46;20021;31
2023/08/31 10:48:28;;;;;;;2.10;1.50;;;17.00;99.90;;;;;;2604899;46;20242;31
2023/08/31 10:51:03;;;;;;;4.07;1.73;;;17.20;99.90;;;;;;2586272;54;20911;31
2023/08/31 10:53:39;;;;;;;3.50;1.95;;;17.30;99.90;;;;;;2586599;54;20027;31
2023/08/31 10:56:10;;;;;;;6.05;2.00;;;17.40;99.90;;;;;;2586192;54;20865;31
2023/08/31 10:58:45;;;;;;;5.25;2.40;;;17.70;99.90;;;;;;2604659;46;20022;31
2023/08/31 11:01:16;;;;;;;4.80;2.70;;;17.80;99.90;;;;;;2604713;46;20042;31
2023/08/31 11:04:01;;;;;;;1.95;1.75;;;18.00;99.90;;;;;;2586178;54;21082;31
2023/08/31 11:06:33;;;;;;;4.15;2.70;;;18.10;99.90;;;;;;2586294;54;20798;31
2023/08/31 11:09:06;;;;;;;3.40;2.55;;;18.40;99.90;;;;;;2586417;54;20056;31
2023/08/31 11:11:41;;;;;;;3.00;2.40;;;18.50;99.90;;;;;;2586283;54;20056;31
2023/08/31 11:14:15;;;;;;;2.67;2.15;;;18.60;99.90;;;;;;2586074;54;20061;31
2023/08/31 11:16:48;;;;;;;4.17;2.03;;;18.60;99.90;;;;;;2586226;54;20030;31
2023/08/31 11:19:20;;;;;;;2.95;1.50;;;18.70;99.90;;;;;;2586350;54;20861;31
2023/08/31 11:21:52;;;;;;;1.58;1.30;;;18.70;99.90;;;;;;2586251;54;20866;31
2023/08/31 11:24:24;;;;;;;1.53;1.40;;;18.70;99.90;;;;;;2586342;54;20914;31
2023/08/31 11:26:57;;;;;;;1.95;1.38;;;18.70;99.90;;;;;;2586115;54;20093;31
2023/08/31 11:29:35;;;;;;;2.07;1.50;;;18.80;99.90;;;;;;2604388;46;20946;31
2023/08/31 11:32:09;;;;;;;1.90;1.25;;;19.00;99.90;;;;;;2586128;54;19957;31
2023/08/31 11:34:44;;;;;;;2.15;1.30;;;19.20;99.90;;;;;;2604520;46;20026;31
2023/08/31 11:37:19;;;;;;;2.00;1.30;;;19.40;99.90;;;;;;2586206;54;20942;31
2023/08/31 11:39:53;;;;;;;2.70;1.50;;;19.50;99.90;;;;;;2586195;54;20057;31
2023/08/31 11:42:25;;;;;;;4.05;1.50;;;19.60;99.90;;;;;;2604456;46;20026;31
2023/08/31 11:45:00;;;;;;;3.17;1.33;;;19.70;99.90;;;;;;2604512;46;20069;31
2023/08/31 11:47:31;;;;;;;3.10;1.50;;;19.70;99.90;;;;;;2586183;54;20915;31
2023/08/31 11:50:04;;;;;;;2.13;1.35;;;19.80;99.90;;;;;;2604885;46;20032;31
2023/08/31 11:52:35;;;;;;;1.60;1.30;;;19.90;99.90;;;;;;2585938;54;20022;31
2023/08/31 11:55:14;;;;;;;2.72;1.67;;;19.90;99.90;;;;;;2586008;54;20898;31
2023/08/31 11:57:51;;;;;;;2.50;1.50;;;20.00;99.90;;;;;;2586304;54;20037;31
2023/08/31 12:00:27;;;;;;;2.45;1.73;;;20.00;99.90;;;;;;2586178;54;20030;31
2023/08/31 12:03:00;;;;;;;2.15;1.40;;;20.00;99.90;;;;;;2586095;54;20768;31
2023/08/31 12:05:34;;;;;;;2.63;1.58;;;19.90;99.90;;;;;;2586032;54;20030;31
2023/08/31 12:08:04;;;;;;;2.25;1.60;;;20.00;99.90;;;;;;2604498;46;20870;31
2023/08/31 12:10:39;;;;;;;3.75;1.98;;;20.00;99.90;;;;;;2603728;46;20889;31
2023/08/31 12:13:14;;;;;;;3.58;1.45;;;20.00;99.90;;;;;;2585899;54;20689;31
2023/08/31 12:15:55;;;;;;;3.22;1.23;;;20.00;99.90;;;;;;2585334;54;20097;31
2023/08/31 12:18:27;;;;;;;3.15;1.20;;;20.10;99.90;;;;;;2585946;54;20085;31
2023/08/31 12:20:59;;;;;;;1.93;1.20;;;20.20;99.90;;;;;;2586143;54;20022;31
2023/08/31 12:23:31;;;;;;;3.30;1.60;;;20.20;99.90;;;;;;2585957;54;20030;31
2023/08/31 12:26:05;;;;;;;2.13;1.08;;;20.30;99.90;;;;;;2586027;54;20770;31
2023/08/31 12:28:38;;;;;;;3.30;1.10;;;20.30;99.90;;;;;;2603950;46;20037;31
2023/08/31 12:31:14;;;;;;;3.17;1.20;;;20.40;99.90;;;;;;2586020;54;20056;31
2023/08/31 12:33:48;;;;;;;3.00;1.10;;;20.50;99.90;;;;;;2586013;54;20045;31
2023/08/31 12:36:20;;;;;;;1.87;0.80;;;20.50;99.90;;;;;;2586316;54;20804;31
2023/08/31 12:38:52;;;;;;;3.70;1.00;;;20.50;99.90;;;;;;2585871;54;20888;31
2023/08/31 12:41:25;;;;;;;1.38;0.98;;;20.50;99.90;;;;;;2604625;46;20941;31
2023/08/31 12:43:58;;;;;;;2.20;1.30;;;20.40;99.90;;;;;;2604232;46;20893;31
2023/08/31 12:46:33;;;;;;;6.55;1.20;;;20.30;99.90;;;;;;2586023;54;20737;31
2023/08/31 12:49:07;;;;;;;2.25;1.08;;;20.30;99.90;;;;;;2604057;46;20053;31
2023/08/31 12:51:39;;;;;;;1.47;1.20;;;20.40;99.90;;;;;;2586087;54;20748;31
2023/08/31 12:54:12;;;;;;;1.50;0.80;;;20.50;99.90;;;;;;2586110;54;20026;31
2023/08/31 12:56:44;;;;;;;2.10;1.17;;;20.50;99.90;;;;;;2585937;54;20027;31
2023/08/31 12:59:17;;;;;;;1.90;1.05;;;20.60;99.90;;;;;;2603932;46;20031;31
2023/08/31 13:01:53;;;;;;;3.22;1.20;;;20.70;99.90;;;;;;2604170;46;20030;31
2023/08/31 13:04:26;;;;;;;3.10;1.05;;;20.80;99.90;;;;;;2683581;39;20429;31
2023/08/31 13:06:58;;;;;;;1.95;0.80;;;20.90;99.90;;;;;;2586023;54;20852;31
2023/08/31 13:09:31;;;;;;;2.45;0.82;;;20.80;99.90;;;;;;2586763;54;20744;31
2023/08/31 13:12:05;;;;;;;2.33;0.98;;;20.80;99.90;;;;;;2586729;54;20026;31
2023/08/31 13:14:40;;;;;;;1.60;0.70;;;20.80;99.90;;;;;;2586721;54;20037;31
2023/08/31 13:17:16;;;;;;;0.98;0.55;;;20.80;99.90;;;;;;2684500;39;20758;31
2023/08/31 13:19:47;;;;;;;;;;;20.90;99.90;;;;;;2586844;54;20763;31
2023/08/31 13:22:19;;;;;;;1.40;0.80;;;20.90;99.90;;;;;;2586256;54;19957;31
2023/08/31 13:24:51;;;;;;;2.20;0.98;;;21.00;99.90;;;;;;2586553;54;20839;31
2023/08/31 13:27:23;;;;;;;1.40;0.80;;;21.00;99.90;;;;;;2605529;46;20865;31
2023/08/31 13:29:55;;;;;;;2.33;0.80;;;21.10;99.90;;;;;;2605117;46;20050;31
2023/08/31 13:32:30;;;;;;;1.42;0.63;;;21.00;99.90;;;;;;2586481;54;20911;31
2023/08/31 13:35:07;;;;;;;2.30;0.90;;;20.90;99.90;;;;;;2605013;46;20926;31
2023/08/31 13:37:39;;;;;;;1.75;0.80;;;20.90;99.90;;;;;;2586515;54;20136;31